Airfield :
LOGIN :

Register | Disclaimer

   EN    FR    IT 

 










Legend :    VFR   Marginal VFR   IFR   Intensive IFR   Very Intensive IFR
Visi :
Ceiling :
>= 8 km
>= 3000ft
5 to 8 km
1000 to 3000 ft
1500m to 5 km
500 to 1000 ft
800 to 1500m
200 to 500 ft
< 800m
< 200 ft
Symbols :   Thunderstorms  Fog  Heavy snow  Heavy precipitations  Wind > 20 kt
SIGMETs :     Misc.  Thunderstorms  Icing  Turbulence  Mountain Waves  Volcanic Ashes






- Airport Elevation : 158 ft
- IATA code : QAR


EHDL - Deelen Airbase

CURRENT METAR :
  • 202125Z AUTO VRB18G30KT 9999 DZ FEW010 SCT013 FEW015CB BKN022 05/03 Q1012 GRN

EXPIRED METARs :
  • 202055Z AUTO 27012KT 210V330 9999 FEW012 FEW015CB BKN016 BKN019 05/04 Q1011 WHT
  • 202025Z AUTO 27009KT 230V340 9999 FEW015CB SCT020 BKN023 06/04 Q1010 WHT
  • 201955Z AUTO 28012KT 210V350 9999 FEW015CB SCT021 BKN033 06/04 Q1009 WHT
  • 201925Z AUTO 28011KT 190V350 9999 -RA FEW008 FEW015CB SCT017 BKN036 06/05 Q1008 RERA REDZ WHT
  • 201855Z AUTO 30020G35KT 260V360 8000 -RA FEW009 SCT011 FEW015CB BKN023 07/05 Q1007 GRN

TAF TAF EHDL
Valid from the 20 at 18:00 until the 21 at 06:00 UTC


201744Z 2018/2106 21018G30KT 9999 SCT015 BKN020
TEMPO 2018/2020 23025G40KT 2500 RA SHRA SCT006 BKN010 SCT018CB
BECMG 2019/2021 29015G25KT SCT025
PROB30
TEMPO 2020/2022 29020G35KT 4000 SHRA TSRA SCT012 SCT020CB
BECMG 2100/2102 24010KT



MET'MAP, your aeronautical weather chart ! - Copyright ORBIFLY December 2007 - Disclaimer

ORBIFLY MET'MAP TEAM :

Programming & Development : Alexandra Zaïnal
Concept & original design : Baudouin d'Aumeries
Assistance for programming : Marc-Olivier Méhu
Technical & hardware support : Manuel Goepfert

Contact : metmap@orbifly.com




SOURCES & CREDITS :

   NOAA